Terminal Aerodrome Forecast
Issued by NWS

Home | Current Version | Previous Version | Graphics & Text | Print | Product List | Glossary On
Versions: 1 2 3 4 5 6 7 8 9 10 11 12 13 14 15 16 17 18 19 20
000
FTUS43 KGRB 290800 AAA
TAFATW
TAF AMD
KATW 290857Z 2909/3006 28013G20KT P6SM BKN035 BKN050
      TEMPO 2909/2913 BKN025
     FM291400 30011KT P6SM BKN035 OVC050
     FM292200 28006KT P6SM BKN035=

USA.gov is the U.S. government's official web portal to all federal, state and local government web resources and services.